Flagstaff Pulliam Airport Flagstaff US
ICAO: KFLG
IATA: FLG
Category: Medium
Scheduled Services: Yes

Elevation: 7014 ft
TransAlt. 18000 ft.

Airport Communications:
ATIS:125.8
ALBUQUERQUE CNTR:124.5
CTAF:134.55
GND:121.9
PRESCOTT RDO:122.3
TWR:134.55
UNICOM:122.95

KFLG Zoom In..

Runways:

(A) RW 03 length 8800 ft width 150 ft
---- / hdg 27

(B) RW 21 length 8800 ft width 150 ft
ILS 110.50 / hdg 207

Location; KFLG
Day. 22 / Time. 01.57 Zulu
* Altimeter: 30.00
* Temperature: 16° c. 60.8°f.
* Wind from: 220° Speed 11 kn with Gusts up to 17 kn.
Dewpoint: -08° c.
Visibility: 9 Statute Miles.
Clouds: Few 12000 ft.

KFLG 220157Z 22011G17KT 9SM FEW120 16/M08 A3000 RMK AO2 SLP091 T01561083


Wind From 220°
Speed 11 kn.

 
 
jpsmedia.com for Web Design SOUNDCLOUD worldairports.se 2018   terms of use